Time;durP1;ratioP1;P1;durP2;ratioP2;P2;SDS_P1;SDS_P2;PMS_P1;PMS_P2;Temp;Humidity;BMP_temperature;BMP_pressure;BME280_temperature;BME280_humidity;BME280_pressure;Samples;Min_cycle;Max_cycle;Signal;HPM_P1;HPM_P2
2022/10/25 05:52:23;;;;;;;3.63;3.30;;;12.40;99.90;;;;;;5004602;27;3127996;-90
2022/10/25 05:54:49;;;;;;;2.80;2.60;;;12.40;99.90;;;;;;5072858;28;20184;-82
2022/10/25 05:57:15;;;;;;;3.10;2.90;;;12.50;99.90;;;;;;5075903;28;20536;-85
2022/10/25 05:59:40;;;;;;;2.87;2.67;;;12.70;99.90;;;;;;5091578;28;20669;-86
2022/10/25 06:02:08;;;;;;;2.57;2.47;;;12.80;99.90;;;;;;5092177;28;20178;-81
2022/10/25 06:04:34;;;;;;;2.87;2.43;;;13.00;99.90;;;;;;5095092;28;20168;-86
2022/10/25 06:07:00;;;;;;;1.80;1.70;;;13.00;99.90;;;;;;5100277;28;20157;-83
2022/10/25 06:09:25;;;;;;;3.13;2.13;;;13.10;99.90;;;;;;5102871;28;20172;-92
2022/10/25 06:11:51;;;;;;;1.90;1.80;;;13.20;99.90;;;;;;5108685;28;20225;-82
2022/10/25 06:14:17;;;;;;;1.73;1.63;;;13.30;99.90;;;;;;5103107;28;20184;-89
2022/10/25 06:16:43;;;;;;;1.67;1.57;;;13.30;99.90;;;;;;5092801;28;20232;-91
2022/10/25 06:19:08;;;;;;;1.70;1.60;;;13.40;99.90;;;;;;5095867;28;20211;-83
2022/10/25 06:21:34;;;;;;;1.50;1.40;;;13.40;99.90;;;;;;5107517;28;20176;-87
2022/10/25 06:24:01;;;;;;;1.70;1.60;;;13.40;99.90;;;;;;5094533;28;20580;-91
2022/10/25 06:26:29;;;;;;;1.67;1.57;;;13.40;99.90;;;;;;5091950;28;20179;-91
2022/10/25 06:29:01;;;;;;;1.43;1.40;;;13.40;99.90;;;;;;5091443;28;20183;-93
2022/10/25 06:31:28;;;;;;;2.30;1.50;;;13.50;99.90;;;;;;5090515;28;20204;-90
2022/10/25 06:33:54;;;;;;;1.97;1.50;;;13.60;99.90;;;;;;5090238;28;20174;-88
2022/10/25 06:36:22;;;;;;;2.00;1.40;;;13.60;99.90;;;;;;5091215;28;20170;-93
2022/10/25 06:38:49;;;;;;;1.47;1.43;;;13.60;99.90;;;;;;5101844;28;20173;-86
2022/10/25 06:41:21;;;;;;;1.40;1.40;;;13.70;99.90;;;;;;5103451;28;20186;-86
2022/10/25 06:43:48;;;;;;;1.73;1.63;;;13.70;99.90;;;;;;5098938;28;20701;-93
2022/10/25 06:46:23;;;;;;;1.83;1.73;;;13.70;99.90;;;;;;5097784;28;20176;-90
2022/10/25 06:48:50;;;;;;;1.60;1.50;;;13.70;99.90;;;;;;5095861;28;20162;-95
2022/10/25 06:51:17;;;;;;;1.80;1.70;;;13.70;99.90;;;;;;5092002;28;20237;-93
2022/10/25 06:53:43;;;;;;;1.57;1.47;;;13.70;99.90;;;;;;5090081;28;20175;-94
2022/10/25 06:56:11;;;;;;;2.67;1.57;;;13.70;99.90;;;;;;5092503;28;20265;-84
2022/10/25 06:58:37;;;;;;;1.60;1.50;;;13.80;99.90;;;;;;5090000;28;20716;-87
2022/10/25 07:01:09;;;;;;;1.90;1.50;;;13.90;99.90;;;;;;5089631;28;20243;-91
2022/10/25 07:03:35;;;;;;;1.67;1.37;;;14.00;99.90;;;;;;5078281;28;20242;-90
2022/10/25 07:06:05;;;;;;;1.80;1.70;;;14.10;99.90;;;;;;5082227;28;20262;-85
2022/10/25 07:08:35;;;;;;;1.50;1.43;;;14.10;99.90;;;;;;5082506;28;20179;-94
2022/10/25 07:11:02;;;;;;;2.00;1.60;;;14.10;99.90;;;;;;5076918;28;20222;-91
2022/10/25 07:13:29;;;;;;;1.57;1.57;;;14.10;99.90;;;;;;5078189;28;20168;-85
2022/10/25 07:16:03;;;;;;;1.40;1.40;;;14.20;99.90;;;;;;5079172;28;20230;-91
2022/10/25 07:18:29;;;;;;;1.70;1.60;;;14.20;99.90;;;;;;5077005;28;20309;-87
2022/10/25 07:20:59;;;;;;;1.60;1.50;;;14.20;99.90;;;;;;5078160;28;20234;-89
2022/10/25 07:23:26;;;;;;;2.80;2.50;;;14.20;99.90;;;;;;5076120;28;20228;-86
2022/10/25 07:25:52;;;;;;;1.83;1.70;;;14.30;99.90;;;;;;5079474;28;20179;-90
2022/10/25 07:28:18;;;;;;;2.23;1.73;;;14.40;99.90;;;;;;5097249;28;20185;-87
2022/10/25 07:30:47;;;;;;;1.83;1.60;;;14.50;99.90;;;;;;5097970;28;20214;-87
2022/10/25 07:33:15;;;;;;;5.20;1.63;;;14.60;99.90;;;;;;5083910;28;20182;-84
2022/10/25 07:35:48;;;;;;;2.83;1.90;;;14.60;99.90;;;;;;5079410;28;20175;-86
2022/10/25 07:38:15;;;;;;;3.00;2.70;;;14.60;99.90;;;;;;5078479;28;20170;-86
2022/10/25 07:40:41;;;;;;;2.00;1.90;;;14.70;99.90;;;;;;5080645;28;20277;-83
2022/10/25 07:43:08;;;;;;;2.03;1.93;;;14.80;99.90;;;;;;5083004;28;20218;-83
2022/10/25 07:45:34;;;;;;;1.93;1.83;;;15.00;99.90;;;;;;5094323;28;20183;-88
2022/10/25 07:48:00;;;;;;;2.73;2.10;;;15.00;99.90;;;;;;5086648;28;20182;-83
2022/10/25 07:50:26;;;;;;;1.83;1.73;;;15.10;99.90;;;;;;5090679;28;20195;-90
2022/10/25 07:52:54;;;;;;;2.07;1.87;;;15.20;99.90;;;;;;5098079;28;20161;-94
2022/10/25 07:55:19;;;;;;;1.73;1.63;;;15.10;99.90;;;;;;5083328;28;20220;-95
2022/10/25 07:57:45;;;;;;;1.67;1.57;;;15.10;99.90;;;;;;5078183;28;20587;-95
2022/10/25 08:00:11;;;;;;;1.70;1.60;;;15.10;99.90;;;;;;5077374;28;20175;-93
2022/10/25 08:02:37;;;;;;;2.63;2.20;;;15.10;99.90;;;;;;5077765;28;20251;-94
2022/10/25 08:05:03;;;;;;;1.77;1.70;;;15.20;99.90;;;;;;5077205;28;20200;-94
2022/10/25 08:07:29;;;;;;;1.80;1.80;;;15.20;99.90;;;;;;5077114;28;20170;-93
2022/10/25 08:09:55;;;;;;;2.00;1.90;;;15.20;99.90;;;;;;5084919;28;20258;-90
2022/10/25 08:12:21;;;;;;;1.80;1.70;;;15.10;99.90;;;;;;5098224;28;20177;-87
2022/10/25 08:14:46;;;;;;;2.20;2.10;;;15.10;99.90;;;;;;5083392;28;20677;-95
2022/10/25 08:17:12;;;;;;;3.80;3.50;;;15.10;99.90;;;;;;5077880;28;20179;-95
2022/10/25 08:19:38;;;;;;;2.37;2.17;;;15.10;99.90;;;;;;5076937;28;20253;-95
2022/10/25 08:22:04;;;;;;;2.70;2.50;;;15.10;99.90;;;;;;5075728;28;20179;-93
2022/10/25 08:24:31;;;;;;;3.47;2.70;;;15.10;99.90;;;;;;5077157;28;20182;-91
2022/10/25 08:26:56;;;;;;;3.63;3.40;;;15.10;99.90;;;;;;5082795;28;20250;-92
2022/10/25 08:29:22;;;;;;;5.20;3.70;;;15.10;99.90;;;;;;5076575;28;20263;-92
2022/10/25 08:31:48;;;;;;;4.20;3.73;;;15.10;99.90;;;;;;5077222;28;20207;-93
2022/10/25 08:34:14;;;;;;;6.40;3.50;;;15.10;99.90;;;;;;5078361;28;20180;-89
2022/10/25 08:36:40;;;;;;;8.37;3.30;;;15.00;99.90;;;;;;5078013;28;20179;-91
2022/10/25 08:39:05;;;;;;;3.00;2.80;;;14.90;99.90;;;;;;5077549;28;20632;-91
2022/10/25 08:41:55;;;;;;;3.13;2.93;;;14.90;99.90;;;;;;5075574;28;20201;-93
2022/10/25 08:44:45;;;;;;;3.90;3.27;;;14.90;99.90;;;;;;5061370;28;20544;-91
2022/10/25 08:47:26;;;;;;;3.07;2.83;;;15.00;99.90;;;;;;5075596;28;20264;-87
2022/10/25 08:50:13;;;;;;;4.17;3.30;;;15.10;99.90;;;;;;5073272;28;20716;-84
2022/10/25 08:52:46;;;;;;;4.00;3.60;;;15.10;99.90;;;;;;5073564;28;20195;-88
2022/10/25 08:55:16;;;;;;;2.77;2.57;;;15.30;99.90;;;;;;5073969;28;20609;-95
2022/10/25 08:57:45;;;;;;;2.90;2.00;;;15.30;99.90;;;;;;5076227;28;20170;-94
2022/10/25 09:00:23;;;;;;;2.80;2.33;;;15.30;99.90;;;;;;5074368;28;20545;-91
2022/10/25 09:02:54;;;;;;;2.43;2.20;;;15.40;99.90;;;;;;5075748;28;20162;-95
2022/10/25 09:05:39;;;;;;;3.93;2.77;;;15.40;99.90;;;;;;5075978;28;20167;-94
2022/10/25 09:08:08;;;;;;;4.23;3.10;;;15.40;99.90;;;;;;5076784;28;20190;-95
2022/10/25 09:10:47;;;;;;;2.30;2.20;;;15.50;99.90;;;;;;5076450;28;20210;-95
2022/10/25 09:13:25;;;;;;;2.70;2.50;;;15.50;99.90;;;;;;5076792;28;20634;-85
2022/10/25 09:15:56;;;;;;;2.40;2.13;;;15.50;99.90;;;;;;5087968;28;20151;-92
2022/10/25 09:18:42;;;;;;;1.90;1.80;;;15.60;99.90;;;;;;5098124;28;20151;-90
2022/10/25 09:21:19;;;;;;;2.77;2.00;;;15.60;99.90;;;;;;5090394;28;20638;-83
2022/10/25 09:24:14;;;;;;;1.90;1.80;;;15.60;99.90;;;;;;5079234;28;20632;-83
2022/10/25 09:26:47;;;;;;;1.87;1.77;;;15.70;99.90;;;;;;5073319;28;20171;-83
2022/10/25 09:29:26;;;;;;;2.10;1.87;;;15.80;99.90;;;;;;5073801;28;20530;-92
2022/10/25 09:31:57;;;;;;;2.03;1.87;;;15.80;99.90;;;;;;5075116;28;20199;-89
2022/10/25 09:34:26;;;;;;;2.63;2.20;;;15.90;99.90;;;;;;5079997;28;20159;-84
2022/10/25 09:36:58;;;;;;;3.10;2.13;;;15.90;99.90;;;;;;5063889;28;20179;-83
2022/10/25 09:39:30;;;;;;;2.33;2.23;;;15.90;99.90;;;;;;5077086;28;20159;-90
2022/10/25 09:41:58;;;;;;;5.23;3.10;;;15.90;99.90;;;;;;5076435;28;20192;-87
2022/10/25 09:44:32;;;;;;;4.50;3.27;;;16.00;99.90;;;;;;5074568;28;20175;-87
2022/10/25 09:47:24;;;;;;;3.63;3.37;;;16.10;99.90;;;;;;5074317;28;20527;-87
2022/10/25 09:50:03;;;;;;;3.63;3.33;;;16.10;99.90;;;;;;5074515;28;20201;-92
2022/10/25 09:52:29;;;;;;;5.90;3.23;;;16.10;99.90;;;;;;5057295;28;20321;-89
2022/10/25 09:55:05;;;;;;;7.87;5.10;;;16.10;99.90;;;;;;5075348;28;20199;-93
2022/10/25 09:57:31;;;;;;;3.80;3.50;;;16.10;99.90;;;;;;5075507;28;20177;-86
2022/10/25 09:59:57;;;;;;;7.57;4.20;;;16.10;99.90;;;;;;5057363;28;20175;-90
2022/10/25 10:02:25;;;;;;;7.47;6.43;;;16.10;99.90;;;;;;5080216;28;20176;-86
2022/10/25 10:04:52;;;;;;;6.07;3.20;;;16.10;99.90;;;;;;5085554;28;20262;-92
2022/10/25 10:07:36;;;;;;;3.50;3.20;;;16.30;99.90;;;;;;5077484;28;20168;-87
2022/10/25 10:10:09;;;;;;;3.40;3.10;;;16.30;99.90;;;;;;5060510;28;20179;-87
2022/10/25 10:12:54;;;;;;;3.33;3.03;;;16.30;99.90;;;;;;5074458;28;20230;-87
2022/10/25 10:15:37;;;;;;;4.17;2.80;;;16.30;99.90;;;;;;5074354;28;20171;-92
2022/10/25 10:18:28;;;;;;;3.30;3.00;;;16.30;99.90;;;;;;5073912;28;20151;-91
2022/10/25 10:21:09;;;;;;;2.30;2.20;;;16.30;99.90;;;;;;5073927;28;20637;-88
2022/10/25 10:23:40;;;;;;;2.70;2.50;;;16.40;99.90;;;;;;5073957;28;20175;-89
2022/10/25 10:26:27;;;;;;;2.90;2.70;;;16.40;99.90;;;;;;5074184;28;20167;-84
2022/10/25 10:29:10;;;;;;;2.83;2.63;;;16.40;99.90;;;;;;5074933;28;20258;-91
2022/10/25 10:31:40;;;;;;;3.80;3.43;;;16.50;99.90;;;;;;5075109;28;20251;-90
2022/10/25 10:34:22;;;;;;;4.93;4.40;;;16.50;99.90;;;;;;5074444;28;20250;-90
2022/10/25 10:37:15;;;;;;;4.10;3.20;;;16.50;99.90;;;;;;5074656;28;20220;-92
2022/10/25 10:39:57;;;;;;;6.47;5.50;;;16.50;99.90;;;;;;5060319;28;20514;-89
2022/10/25 10:42:32;;;;;;;3.33;2.83;;;16.60;99.90;;;;;;5078255;28;20182;-91
2022/10/25 10:45:06;;;;;;;2.87;2.43;;;16.60;99.90;;;;;;5060500;28;20175;-92
2022/10/25 10:47:41;;;;;;;3.17;2.70;;;16.70;99.90;;;;;;5078311;28;20608;-85
2022/10/25 10:50:19;;;;;;;4.57;2.20;;;16.80;99.90;;;;;;5087911;28;20213;-87
2022/10/25 10:52:46;;;;;;;3.23;2.80;;;16.80;99.90;;;;;;5093719;28;20166;-85
2022/10/25 10:55:27;;;;;;;4.23;2.43;;;16.70;99.90;;;;;;5096764;28;20167;-83
2022/10/25 10:57:54;;;;;;;2.57;2.33;;;16.80;99.90;;;;;;5082864;28;20622;-84
2022/10/25 11:00:23;;;;;;;5.80;2.23;;;17.00;99.90;;;;;;5077309;28;20243;-88
2022/10/25 11:02:48;;;;;;;3.30;2.60;;;17.00;99.90;;;;;;5077824;28;20175;-84
2022/10/25 11:05:27;;;;;;;4.40;2.50;;;16.90;99.90;;;;;;5083389;28;20195;-86
2022/10/25 11:08:00;;;;;;;5.53;2.37;;;16.90;99.90;;;;;;5096979;28;20174;-84
2022/10/25 11:10:32;;;;;;;2.50;2.30;;;16.90;99.90;;;;;;5096022;28;20216;-84
2022/10/25 11:13:06;;;;;;;2.83;2.40;;;16.90;99.90;;;;;;5078030;28;20236;-84
2022/10/25 11:15:43;;;;;;;1.93;1.80;;;17.00;99.90;;;;;;5078523;28;20170;-85
2022/10/25 11:18:11;;;;;;;2.20;2.00;;;17.00;99.90;;;;;;5077575;28;20167;-93
2022/10/25 11:21:23;;;;;;;4.73;2.00;;;17.10;99.90;;;;;;5081086;28;20164;-90
2022/10/25 11:23:54;;;;;;;2.87;1.83;;;17.20;99.90;;;;;;5086808;28;20625;-91
2022/10/25 11:26:49;;;;;;;2.23;2.10;;;17.30;99.90;;;;;;5078252;28;20171;-92
2022/10/25 11:29:53;;;;;;;2.77;2.27;;;17.30;99.90;;;;;;5075438;28;20642;-88
2022/10/25 11:32:36;;;;;;;1.93;1.67;;;17.40;99.90;;;;;;5014486;28;20251;-92
2022/10/25 11:35:38;;;;;;;2.10;2.00;;;17.40;99.90;;;;;;5014312;28;20185;-86
2022/10/25 11:38:13;;;;;;;6.73;2.00;;;17.50;99.90;;;;;;4998264;28;20173;-89
2022/10/25 11:40:59;;;;;;;2.37;2.00;;;17.60;99.90;;;;;;4997586;28;20204;-87
2022/10/25 11:43:33;;;;;;;3.73;1.90;;;17.70;99.90;;;;;;4999968;28;20180;-87
2022/10/25 11:46:06;;;;;;;1.60;1.50;;;17.70;99.90;;;;;;4999973;28;20176;-84
2022/10/25 11:48:45;;;;;;;1.50;1.50;;;17.80;99.90;;;;;;5016322;28;20172;-83
2022/10/25 11:51:35;;;;;;;2.30;2.10;;;17.80;99.90;;;;;;4996744;28;20619;-86
2022/10/25 11:54:12;;;;;;;1.50;1.40;;;17.80;99.90;;;;;;5013484;28;20204;-90
2022/10/25 11:56:50;;;;;;;1.90;1.80;;;17.80;99.90;;;;;;5016450;28;20165;-81
2022/10/25 11:59:31;;;;;;;1.43;1.37;;;17.90;99.90;;;;;;5000052;28;20192;-82
2022/10/25 12:02:22;;;;;;;2.90;2.53;;;18.00;99.90;;;;;;5014680;28;20256;-92
2022/10/25 12:05:11;;;;;;;4.60;2.50;;;17.90;99.90;;;;;;5014340;28;20590;-91
2022/10/25 12:08:29;;;;;;;5.57;2.60;;;17.80;99.90;;;;;;5075774;28;20166;-89
2022/10/25 12:11:05;;;;;;;2.60;2.40;;;17.80;99.90;;;;;;5013767;28;20208;-91
2022/10/25 12:13:46;;;;;;;2.27;2.13;;;17.80;99.90;;;;;;5074722;28;20179;-90
2022/10/25 12:16:16;;;;;;;1.90;1.53;;;17.80;99.90;;;;;;5076674;28;20630;-94
2022/10/25 12:19:26;;;;;;;1.47;1.37;;;17.80;99.90;;;;;;5059354;28;20655;-95
2022/10/25 12:22:06;;;;;;;3.50;1.93;;;17.90;99.90;;;;;;5080500;28;20171;-93
2022/10/25 12:24:42;;;;;;;2.50;1.57;;;17.90;99.90;;;;;;5079572;28;20186;-94
2022/10/25 12:27:10;;;;;;;3.17;2.87;;;17.90;99.90;;;;;;5066059;28;20224;-87
2022/10/25 12:29:44;;;;;;;1.63;1.60;;;18.00;99.90;;;;;;5096474;28;20163;-92
2022/10/25 12:32:21;;;;;;;1.30;1.20;;;18.00;99.90;;;;;;5097224;28;20202;-83
2022/10/25 12:34:50;;;;;;;1.27;1.27;;;18.10;99.90;;;;;;5098963;28;20167;-90
2022/10/25 12:37:40;;;;;;;6.17;2.17;;;18.20;99.90;;;;;;5098052;28;20163;-91
2022/10/25 12:40:13;;;;;;;4.23;3.70;;;18.30;99.90;;;;;;5096870;28;20167;-92
2022/10/25 12:43:30;;;;;;;1.00;1.00;;;18.30;99.90;;;;;;5088526;28;20159;-85
2022/10/25 12:46:02;;;;;;;3.27;1.70;;;18.40;99.90;;;;;;4960494;28;20186;-85
2022/10/25 12:48:52;;;;;;;1.27;1.17;;;18.40;99.90;;;;;;5075863;28;20178;-87
2022/10/25 12:51:39;;;;;;;1.50;1.40;;;18.40;99.90;;;;;;5075613;28;20258;-88
2022/10/25 12:54:24;;;;;;;1.60;0.80;;;18.40;99.90;;;;;;5075421;28;20225;-84
2022/10/25 12:56:58;;;;;;;3.43;1.60;;;18.40;99.90;;;;;;5074876;28;20159;-83
2022/10/25 12:59:56;;;;;;;3.40;3.10;;;18.30;99.90;;;;;;5084842;28;20162;-93
2022/10/25 13:02:36;;;;;;;1.60;1.20;;;18.40;99.90;;;;;;5094040;28;20186;-82
2022/10/25 13:05:04;;;;;;;2.77;1.10;;;18.30;99.90;;;;;;5082722;28;20186;-87
2022/10/25 13:07:34;;;;;;;4.10;1.03;;;18.20;99.90;;;;;;5078786;28;20171;-93
2022/10/25 13:10:20;;;;;;;0.90;0.90;;;18.20;99.90;;;;;;5083004;28;20168;-92
2022/10/25 13:13:17;;;;;;;1.13;1.03;;;18.30;99.90;;;;;;5090441;28;20198;-91
2022/10/25 13:15:47;;;;;;;1.53;0.90;;;18.20;99.90;;;;;;5078072;28;20156;-94
2022/10/25 13:18:31;;;;;;;1.20;1.20;;;18.20;99.90;;;;;;5077015;28;20174;-94
2022/10/25 13:21:02;;;;;;;2.40;1.17;;;18.20;99.90;;;;;;5075904;28;20186;-90
2022/10/25 13:23:45;;;;;;;1.80;1.10;;;18.30;99.90;;;;;;5075556;28;20577;-89
2022/10/25 13:26:17;;;;;;;3.03;0.87;;;18.30;99.90;;;;;;5076071;28;20182;-92
2022/10/25 13:28:55;;;;;;;1.87;1.13;;;18.30;99.90;;;;;;5074450;28;20167;-92
2022/10/25 13:31:29;;;;;;;1.97;0.90;;;18.30;99.90;;;;;;5075188;28;20221;-92
2022/10/25 13:34:14;;;;;;;1.10;1.10;;;18.20;99.90;;;;;;5078975;28;20665;-86
2022/10/25 13:36:50;;;;;;;1.03;0.80;;;18.20;99.90;;;;;;5080662;28;20231;-84
2022/10/25 13:39:41;;;;;;;3.83;2.60;;;18.20;99.90;;;;;;5074628;28;20193;-87
2022/10/25 13:42:08;;;;;;;5.53;4.13;;;18.20;99.90;;;;;;5077331;28;20642;-84
2022/10/25 13:44:38;;;;;;;3.53;2.63;;;18.20;99.90;;;;;;5073931;28;20169;-86
2022/10/25 13:47:24;;;;;;;2.97;2.70;;;18.10;99.90;;;;;;5074623;28;20569;-87
2022/10/25 13:49:50;;;;;;;2.27;2.07;;;18.20;99.90;;;;;;5075109;28;20159;-93
2022/10/25 13:52:29;;;;;;;1.10;1.10;;;18.10;99.90;;;;;;5079244;28;20230;-92
2022/10/25 13:54:55;;;;;;;1.00;1.00;;;18.10;99.90;;;;;;5089984;28;20182;-86
2022/10/25 13:57:47;;;;;;;1.10;1.10;;;18.10;99.90;;;;;;5076395;28;20187;-88
2022/10/25 14:00:39;;;;;;;1.23;1.13;;;18.10;99.90;;;;;;5084200;28;20163;-91
2022/10/25 14:03:07;;;;;;;1.10;1.00;;;18.10;99.90;;;;;;5089692;28;20170;-92
2022/10/25 14:05:55;;;;;;;0.80;0.80;;;18.20;99.90;;;;;;5081714;28;20167;-94
2022/10/25 14:08:42;;;;;;;0.90;0.90;;;18.30;99.90;;;;;;5085166;28;20179;-89
2022/10/25 14:11:19;;;;;;;0.60;0.60;;;18.20;99.90;;;;;;5093391;28;20287;-87
2022/10/25 14:14:11;;;;;;;0.67;0.67;;;18.10;99.90;;;;;;5079342;28;20170;-90
2022/10/25 14:16:45;;;;;;;0.70;0.70;;;18.10;99.90;;;;;;5080056;28;20187;-92
2022/10/25 14:19:21;;;;;;;0.70;0.70;;;18.00;99.90;;;;;;5078495;28;20168;-88
2022/10/25 14:21:49;;;;;;;0.80;0.80;;;17.90;99.90;;;;;;5078035;28;20612;-94
2022/10/25 14:24:16;;;;;;;1.07;0.97;;;17.90;99.90;;;;;;5081435;28;20175;-85
2022/10/25 14:27:24;;;;;;;1.70;1.10;;;17.90;99.90;;;;;;5089784;28;20642;-86
2022/10/25 14:29:50;;;;;;;0.80;0.80;;;17.80;99.90;;;;;;5078096;28;20217;-89
2022/10/25 14:32:20;;;;;;;0.73;0.73;;;17.90;99.90;;;;;;5078186;28;20195;-88
2022/10/25 14:34:52;;;;;;;2.60;0.83;;;17.80;99.90;;;;;;5079650;28;20164;-90
2022/10/25 14:37:20;;;;;;;1.10;0.80;;;17.80;99.90;;;;;;5085854;28;20198;-86
2022/10/25 14:39:53;;;;;;;2.47;1.57;;;17.70;99.90;;;;;;5086835;28;20167;-87
2022/10/25 14:42:19;;;;;;;2.20;1.40;;;17.70;99.90;;;;;;5085216;28;20171;-82
2022/10/25 14:45:16;;;;;;;1.67;1.57;;;17.70;99.90;;;;;;5066735;28;20187;-82
2022/10/25 14:47:42;;;;;;;1.07;1.07;;;17.70;99.90;;;;;;5084925;28;20170;-85
2022/10/25 14:50:14;;;;;;;1.83;1.20;;;17.60;99.90;;;;;;5083938;28;20191;-82
2022/10/25 14:52:43;;;;;;;1.13;1.03;;;17.70;99.90;;;;;;5067925;28;20219;-82
2022/10/25 14:55:58;;;;;;;1.20;1.20;;;17.70;99.90;;;;;;5098525;28;20233;-83
2022/10/25 14:58:30;;;;;;;1.77;1.50;;;17.70;99.90;;;;;;4994348;28;20213;-89
2022/10/25 15:01:00;;;;;;;1.67;1.57;;;17.60;99.90;;;;;;4998454;28;20163;-85
2022/10/25 15:03:28;;;;;;;1.20;1.20;;;17.60;99.90;;;;;;4996991;28;20170;-90
2022/10/25 15:05:58;;;;;;;1.07;1.07;;;17.60;99.90;;;;;;4974888;28;20189;-85
2022/10/25 15:08:26;;;;;;;1.23;1.10;;;17.50;99.90;;;;;;4992832;28;20187;-82
2022/10/25 15:10:59;;;;;;;1.00;1.00;;;17.50;99.90;;;;;;4987035;28;20259;-86
2022/10/25 15:13:31;;;;;;;1.17;1.17;;;17.40;99.90;;;;;;4974258;28;20674;-91
2022/10/25 15:16:01;;;;;;;1.50;1.10;;;17.40;99.90;;;;;;4968215;28;20187;-92
2022/10/25 15:18:33;;;;;;;1.30;1.10;;;17.40;99.90;;;;;;4980530;28;20154;-92
2022/10/25 15:21:13;;;;;;;1.60;1.43;;;17.30;99.90;;;;;;4987923;28;20193;-95
2022/10/25 15:23:42;;;;;;;1.13;1.13;;;17.30;99.90;;;;;;4989097;28;20170;-94
2022/10/25 15:26:22;;;;;;;1.87;1.67;;;17.30;99.90;;;;;;4990275;28;20179;-93
2022/10/25 15:28:50;;;;;;;1.50;1.50;;;17.20;99.90;;;;;;4973128;28;20302;-89
2022/10/25 15:31:22;;;;;;;1.70;1.60;;;17.20;99.90;;;;;;4971816;28;20288;-92
2022/10/25 15:34:04;;;;;;;2.67;1.40;;;17.10;99.90;;;;;;5015126;28;20179;-92
2022/10/25 15:36:32;;;;;;;2.67;1.57;;;17.00;99.90;;;;;;5090289;28;20236;-89
2022/10/25 15:39:01;;;;;;;1.33;1.23;;;17.00;99.90;;;;;;5073293;28;20194;-94
2022/10/25 15:41:27;;;;;;;1.33;1.20;;;16.90;99.90;;;;;;5075089;28;20179;-91
2022/10/25 15:43:54;;;;;;;1.50;1.40;;;16.80;99.90;;;;;;5057078;28;20186;-94
2022/10/25 15:46:32;;;;;;;2.00;1.47;;;16.80;99.90;;;;;;5095770;28;20183;-85
2022/10/25 15:49:02;;;;;;;1.40;1.30;;;16.80;99.90;;;;;;5096516;28;20170;-91
2022/10/25 15:51:29;;;;;;;1.43;1.30;;;;;;;;;;5094332;28;20230;-91
2022/10/25 15:53:56;;;;;;;1.90;1.80;;;16.70;99.90;;;;;;5079185;28;20194;-89
2022/10/25 15:56:23;;;;;;;1.70;1.63;;;16.60;99.90;;;;;;5073711;28;20229;-90
2022/10/25 15:58:50;;;;;;;1.70;1.60;;;16.50;99.90;;;;;;5090814;28;20213;-93
2022/10/25 16:01:18;;;;;;;2.37;1.60;;;16.50;99.90;;;;;;5090101;28;20197;-88
2022/10/25 16:03:45;;;;;;;1.73;1.63;;;16.50;99.90;;;;;;5088254;28;20190;-89
2022/10/25 16:06:13;;;;;;;4.10;3.80;;;16.40;99.90;;;;;;5068008;28;20175;-92
2022/10/25 16:08:40;;;;;;;5.83;5.00;;;16.30;99.90;;;;;;5069772;28;20661;-87
2022/10/25 16:11:12;;;;;;;4.03;3.70;;;16.30;99.90;;;;;;5062150;28;20211;-84
2022/10/25 16:13:38;;;;;;;3.80;3.50;;;16.20;99.90;;;;;;5062991;28;20174;-89
2022/10/25 16:16:05;;;;;;;3.50;3.20;;;16.20;99.90;;;;;;5077021;28;20167;-94
2022/10/25 16:18:31;;;;;;;2.73;2.53;;;16.20;99.90;;;;;;5078703;28;20171;-95
2022/10/25 16:20:58;;;;;;;2.60;2.40;;;16.10;99.90;;;;;;5080192;28;20168;-88
2022/10/25 16:23:25;;;;;;;2.63;2.40;;;16.10;99.90;;;;;;5076524;28;20203;-85
2022/10/25 16:25:55;;;;;;;3.73;2.50;;;16.00;99.90;;;;;;5044339;28;20183;-91
2022/10/25 16:28:21;;;;;;;2.80;2.60;;;16.00;99.90;;;;;;5059024;28;20183;-93
2022/10/25 16:30:47;;;;;;;2.33;2.23;;;15.90;99.90;;;;;;5075264;28;20199;-83
2022/10/25 16:33:13;;;;;;;3.63;2.60;;;15.90;99.90;;;;;;5075143;28;20254;-86
2022/10/25 16:35:40;;;;;;;10.57;7.87;;;15.80;99.90;;;;;;5073975;28;20172;-84
2022/10/25 16:38:07;;;;;;;10.57;6.93;;;15.80;99.90;;;;;;5074727;28;20322;-83
2022/10/25 16:40:33;;;;;;;9.03;6.60;;;15.80;99.90;;;;;;5074313;28;20166;-85
2022/10/25 16:42:59;;;;;;;11.10;7.70;;;15.70;99.90;;;;;;5057283;28;20211;-83
2022/10/25 16:45:29;;;;;;;8.73;6.30;;;15.70;99.90;;;;;;5076019;28;20163;-81
2022/10/25 16:47:56;;;;;;;6.07;5.00;;;15.60;99.90;;;;;;5074486;28;20189;-87
2022/10/25 16:50:26;;;;;;;3.60;3.30;;;15.60;99.90;;;;;;5096652;28;20192;-88
2022/10/25 16:52:55;;;;;;;4.10;3.10;;;15.60;99.90;;;;;;5084171;28;20207;-94
2022/10/25 16:55:23;;;;;;;6.70;3.10;;;15.60;99.90;;;;;;5087431;28;20225;-94
2022/10/25 16:57:49;;;;;;;3.27;3.03;;;15.60;99.90;;;;;;5077002;28;20576;-95
2022/10/25 17:00:15;;;;;;;3.70;3.40;;;15.60;99.90;;;;;;5077081;28;20167;-95
2022/10/25 17:02:41;;;;;;;6.53;3.30;;;15.60;99.90;;;;;;5078904;28;20441;-95
2022/10/25 17:05:16;;;;;;;5.73;3.30;;;15.50;99.90;;;;;;5062577;28;20646;-94
2022/10/25 17:07:44;;;;;;;6.47;3.50;;;15.40;99.90;;;;;;5078739;28;20171;-90
2022/10/25 17:10:33;;;;;;;3.13;2.93;;;15.40;99.90;;;;;;5091848;28;20174;-92
2022/10/25 17:13:02;;;;;;;3.47;3.23;;;15.30;99.90;;;;;;5093366;28;20182;-93
2022/10/25 17:15:38;;;;;;;4.53;3.57;;;15.30;99.90;;;;;;5089925;28;20163;-94
2022/10/25 17:18:11;;;;;;;5.27;3.80;;;15.20;99.90;;;;;;5072011;28;20210;-86
2022/10/25 17:20:37;;;;;;;5.03;3.50;;;15.20;99.90;;;;;;5085442;28;20156;-90
2022/10/25 17:23:02;;;;;;;6.17;3.50;;;15.10;99.90;;;;;;5071645;28;20653;-82
2022/10/25 17:25:28;;;;;;;5.37;3.70;;;15.10;99.90;;;;;;5073712;28;20197;-93
2022/10/25 17:27:55;;;;;;;3.90;3.27;;;15.10;99.90;;;;;;5077650;28;20163;-89
2022/10/25 17:30:21;;;;;;;5.00;3.40;;;15.00;99.90;;;;;;5076478;28;20226;-94
2022/10/25 17:32:47;;;;;;;5.23;4.00;;;14.90;99.90;;;;;;5076869;28;20688;-89
2022/10/25 17:35:13;;;;;;;3.53;3.30;;;14.90;99.90;;;;;;5076599;28;20678;-93
2022/10/25 17:37:43;;;;;;;5.37;3.40;;;14.80;99.90;;;;;;5087486;28;20175;-90
2022/10/25 17:40:12;;;;;;;4.43;3.73;;;14.70;99.90;;;;;;5087548;28;20194;-88
2022/10/25 17:42:40;;;;;;;4.83;3.70;;;14.70;99.90;;;;;;5088489;28;20170;-91
2022/10/25 17:45:07;;;;;;;4.33;4.00;;;14.70;99.90;;;;;;5086576;28;20177;-89
2022/10/25 17:47:36;;;;;;;3.87;3.57;;;14.60;99.90;;;;;;5070721;28;20185;-85
2022/10/25 17:50:05;;;;;;;4.70;3.83;;;14.60;99.90;;;;;;5090794;28;20177;-92
2022/10/25 17:52:31;;;;;;;4.70;4.00;;;14.50;99.90;;;;;;5087910;28;20266;-88
2022/10/25 17:54:58;;;;;;;4.30;3.50;;;14.60;99.90;;;;;;5087110;28;20232;-89
2022/10/25 17:57:24;;;;;;;5.93;3.90;;;14.50;99.90;;;;;;5065347;28;20206;-89
2022/10/25 17:59:50;;;;;;;3.87;3.53;;;14.50;99.90;;;;;;5082280;28;20167;-86
2022/10/25 18:02:16;;;;;;;4.60;3.70;;;14.40;99.90;;;;;;5082519;28;20626;-93
2022/10/25 18:04:45;;;;;;;5.23;4.73;;;14.40;99.90;;;;;;5083900;28;20175;-85
2022/10/25 18:07:12;;;;;;;6.20;3.90;;;14.40;99.90;;;;;;5063334;28;20187;-89
2022/10/25 18:09:40;;;;;;;5.57;3.60;;;14.40;99.90;;;;;;5079911;28;20181;-85
2022/10/25 18:12:08;;;;;;;4.40;4.00;;;14.20;99.90;;;;;;5059750;28;20218;-87
2022/10/25 18:14:35;;;;;;;6.53;4.00;;;14.20;99.90;;;;;;5065274;28;20182;-93
2022/10/25 18:17:01;;;;;;;9.60;6.23;;;14.20;99.90;;;;;;5061994;28;20638;-95
2022/10/25 18:19:27;;;;;;;5.17;4.03;;;14.20;99.90;;;;;;5058916;28;20168;-87
2022/10/25 18:21:53;;;;;;;4.77;4.27;;;14.10;99.90;;;;;;5062389;28;20179;-83
2022/10/25 18:24:19;;;;;;;7.00;5.30;;;14.10;99.90;;;;;;5082104;28;20176;-86
2022/10/25 18:26:46;;;;;;;4.13;3.70;;;14.00;99.90;;;;;;5065462;28;20170;-94
2022/10/25 18:29:12;;;;;;;4.63;3.70;;;13.90;99.90;;;;;;5082772;28;20179;-91
2022/10/25 18:31:39;;;;;;;7.63;3.70;;;13.90;99.90;;;;;;5076867;28;20688;-91
2022/10/25 18:34:06;;;;;;;5.73;3.60;;;13.90;99.90;;;;;;5060175;28;20286;-83
2022/10/25 18:36:33;;;;;;;4.30;3.90;;;13.80;99.90;;;;;;5061811;28;20249;-82
2022/10/25 18:38:59;;;;;;;4.00;3.60;;;13.70;99.90;;;;;;5081407;28;20168;-84
2022/10/25 18:41:29;;;;;;;3.63;3.00;;;13.70;99.90;;;;;;5093539;28;20229;-90
2022/10/25 18:43:56;;;;;;;3.90;3.60;;;13.70;99.90;;;;;;5093694;28;20199;-89
2022/10/25 18:46:24;;;;;;;4.73;3.30;;;13.70;99.90;;;;;;5076849;28;20242;-90
2022/10/25 18:48:52;;;;;;;4.57;3.50;;;13.60;99.90;;;;;;5089424;28;20638;-91
2022/10/25 18:51:21;;;;;;;3.10;2.90;;;13.70;99.90;;;;;;5067139;28;20326;-91
2022/10/25 18:53:51;;;;;;;5.30;3.03;;;13.70;99.90;;;;;;5048613;28;20427;-94
2022/10/25 18:56:18;;;;;;;3.30;3.00;;;13.60;99.90;;;;;;5066691;28;20190;-86
2022/10/25 18:58:45;;;;;;;3.50;2.90;;;13.50;99.90;;;;;;5088116;28;20238;-88
2022/10/25 19:01:15;;;;;;;3.07;2.87;;;13.40;99.90;;;;;;5095367;28;20201;-83
2022/10/25 19:03:42;;;;;;;3.20;3.00;;;13.40;99.90;;;;;;5098018;28;20171;-86
2022/10/25 19:06:09;;;;;;;3.40;3.20;;;13.40;99.90;;;;;;5072124;28;20214;-88
2022/10/25 19:08:36;;;;;;;3.90;3.00;;;13.30;99.90;;;;;;5063555;28;20179;-85